sensor_id;sensor_type;location;lat;lon;timestamp;temperature;humidity
23143;DHT22;11740;51.168;4.112;2022-10-30T00:01:36;17.20;1.00
23143;DHT22;11740;51.168;4.112;2022-10-30T00:04:03;17.20;1.00
23143;DHT22;11740;51.168;4.112;2022-10-30T00:06:30;17.20;1.00
23143;DHT22;11740;51.168;4.112;2022-10-30T00:08:57;17.20;1.00
23143;DHT22;11740;51.168;4.112;2022-10-30T00:11:23;17.10;1.00
23143;DHT22;11740;51.168;4.112;2022-10-30T00:13:50;17.10;22.90
23143;DHT22;11740;51.168;4.112;2022-10-30T00:16:17;17.00;58.70
23143;DHT22;11740;51.168;4.112;2022-10-30T00:18:44;17.00;31.00
23143;DHT22;11740;51.168;4.112;2022-10-30T00:21:12;17.00;28.50
23143;DHT22;11740;51.168;4.112;2022-10-30T00:23:50;17.00;37.10
23143;DHT22;11740;51.168;4.112;2022-10-30T00:26:18;16.90;96.20
23143;DHT22;11740;51.168;4.112;2022-10-30T00:28:49;16.90;99.90
23143;DHT22;11740;51.168;4.112;2022-10-30T00:31:20;16.90;99.90
23143;DHT22;11740;51.168;4.112;2022-10-30T00:33:51;16.80;99.90
23143;DHT22;11740;51.168;4.112;2022-10-30T00:36:18;16.80;99.90
23143;DHT22;11740;51.168;4.112;2022-10-30T00:38:46;16.80;99.90
23143;DHT22;11740;51.168;4.112;2022-10-30T00:41:14;16.80;99.90
23143;DHT22;11740;51.168;4.112;2022-10-30T00:43:45;16.70;99.90
23143;DHT22;11740;51.168;4.112;2022-10-30T00:46:17;16.70;99.90
23143;DHT22;11740;51.168;4.112;2022-10-30T00:51:50;16.60;99.90
23143;DHT22;11740;51.168;4.112;2022-10-30T00:54:19;16.60;99.90
23143;DHT22;11740;51.168;4.112;2022-10-30T00:56:47;16.60;99.90
23143;DHT22;11740;51.168;4.112;2022-10-30T00:59:16;16.60;99.90
23143;DHT22;11740;51.168;4.112;2022-10-30T01:01:46;16.50;99.90
23143;DHT22;11740;51.168;4.112;2022-10-30T01:04:13;16.50;99.90
23143;DHT22;11740;51.168;4.112;2022-10-30T01:06:42;16.50;1.00
23143;DHT22;11740;51.168;4.112;2022-10-30T01:09:14;16.40;99.90
23143;DHT22;11740;51.168;4.112;2022-10-30T01:11:41;16.40;99.90
23143;DHT22;11740;51.168;4.112;2022-10-30T01:14:08;16.40;99.90
23143;DHT22;11740;51.168;4.112;2022-10-30T01:16:41;16.40;99.90
23143;DHT22;11740;51.168;4.112;2022-10-30T01:24:57;16.30;1.00
23143;DHT22;11740;51.168;4.112;2022-10-30T01:35:51;16.10;1.00
23143;DHT22;11740;51.168;4.112;2022-10-30T01:40:50;16.10;1.00
23143;DHT22;11740;51.168;4.112;2022-10-30T01:43:16;16.10;1.00
23143;DHT22;11740;51.168;4.112;2022-10-30T01:51:28;16.00;1.00
23143;DHT22;11740;51.168;4.112;2022-10-30T02:02:31;15.90;1.00
23143;DHT22;11740;51.168;4.112;2022-10-30T02:04:58;15.80;1.00
23143;DHT22;11740;51.168;4.112;2022-10-30T02:07:26;15.80;1.00
23143;DHT22;11740;51.168;4.112;2022-10-30T02:09:53;15.80;1.00
23143;DHT22;11740;51.168;4.112;2022-10-30T02:12:20;15.80;1.00
23143;DHT22;11740;51.168;4.112;2022-10-30T02:14:49;15.70;1.00
23143;DHT22;11740;51.168;4.112;2022-10-30T02:17:18;15.80;1.00
23143;DHT22;11740;51.168;4.112;2022-10-30T02:19:45;15.70;1.00
23143;DHT22;11740;51.168;4.112;2022-10-30T02:22:12;15.70;1.00
23143;DHT22;11740;51.168;4.112;2022-10-30T02:24:39;15.70;1.00
23143;DHT22;11740;51.168;4.112;2022-10-30T02:27:06;15.70;1.00
23143;DHT22;11740;51.168;4.112;2022-10-30T02:29:32;15.60;1.00
23143;DHT22;11740;51.168;4.112;2022-10-30T02:31:59;15.60;1.00
23143;DHT22;11740;51.168;4.112;2022-10-30T02:34:26;15.60;99.90
23143;DHT22;11740;51.168;4.112;2022-10-30T02:36:53;15.50;1.00
23143;DHT22;11740;51.168;4.112;2022-10-30T02:39:20;15.50;1.00
23143;DHT22;11740;51.168;4.112;2022-10-30T02:41:47;15.50;1.00
23143;DHT22;11740;51.168;4.112;2022-10-30T02:44:14;15.50;99.90
23143;DHT22;11740;51.168;4.112;2022-10-30T02:46:40;15.40;99.90
23143;DHT22;11740;51.168;4.112;2022-10-30T02:49:07;15.40;57.80
23143;DHT22;11740;51.168;4.112;2022-10-30T02:51:34;15.40;99.90
23143;DHT22;11740;51.168;4.112;2022-10-30T02:54:01;15.40;99.90
23143;DHT22;11740;51.168;4.112;2022-10-30T02:56:27;15.30;97.30
23143;DHT22;11740;51.168;4.112;2022-10-30T02:58:54;15.30;99.90
23143;DHT22;11740;51.168;4.112;2022-10-30T03:01:21;15.30;91.50
23143;DHT22;11740;51.168;4.112;2022-10-30T03:03:49;15.30;99.90
23143;DHT22;11740;51.168;4.112;2022-10-30T03:06:15;15.20;99.90
23143;DHT22;11740;51.168;4.112;2022-10-30T03:08:42;15.20;1.00
23143;DHT22;11740;51.168;4.112;2022-10-30T03:11:16;15.20;1.00
23143;DHT22;11740;51.168;4.112;2022-10-30T03:13:44;15.10;1.00
23143;DHT22;11740;51.168;4.112;2022-10-30T03:16:13;15.10;99.90
23143;DHT22;11740;51.168;4.112;2022-10-30T03:18:43;15.10;99.90
23143;DHT22;11740;51.168;4.112;2022-10-30T03:21:12;15.10;1.00
23143;DHT22;11740;51.168;4.112;2022-10-30T03:23:40;15.10;1.00
23143;DHT22;11740;51.168;4.112;2022-10-30T03:26:07;15.00;1.00
23143;DHT22;11740;51.168;4.112;2022-10-30T03:28:34;15.00;99.90
23143;DHT22;11740;51.168;4.112;2022-10-30T03:31:05;15.00;99.90
23143;DHT22;11740;51.168;4.112;2022-10-30T03:33:34;15.00;99.90
23143;DHT22;11740;51.168;4.112;2022-10-30T03:36:02;15.00;1.00
23143;DHT22;11740;51.168;4.112;2022-10-30T03:38:29;15.00;1.00
23143;DHT22;11740;51.168;4.112;2022-10-30T03:40:56;14.90;1.00
23143;DHT22;11740;51.168;4.112;2022-10-30T03:43:23;14.90;99.90
23143;DHT22;11740;51.168;4.112;2022-10-30T03:45:50;14.90;99.90
23143;DHT22;11740;51.168;4.112;2022-10-30T03:48:20;14.90;99.90
23143;DHT22;11740;51.168;4.112;2022-10-30T03:50:51;14.80;99.90
23143;DHT22;11740;51.168;4.112;2022-10-30T03:53:18;14.80;99.90
23143;DHT22;11740;51.168;4.112;2022-10-30T03:55:46;14.80;99.90
23143;DHT22;11740;51.168;4.112;2022-10-30T03:58:12;14.70;99.90
23143;DHT22;11740;51.168;4.112;2022-10-30T04:00:39;14.80;99.90
23143;DHT22;11740;51.168;4.112;2022-10-30T04:03:06;14.70;99.90
23143;DHT22;11740;51.168;4.112;2022-10-30T04:05:34;14.70;99.90
23143;DHT22;11740;51.168;4.112;2022-10-30T04:08:03;14.70;99.90
23143;DHT22;11740;51.168;4.112;2022-10-30T04:10:33;14.60;99.90
23143;DHT22;11740;51.168;4.112;2022-10-30T04:13:04;14.60;99.90
23143;DHT22;11740;51.168;4.112;2022-10-30T04:15:32;14.60;99.90
23143;DHT22;11740;51.168;4.112;2022-10-30T04:17:59;14.60;99.90
23143;DHT22;11740;51.168;4.112;2022-10-30T04:20:27;14.50;99.90
23143;DHT22;11740;51.168;4.112;2022-10-30T04:22:54;14.50;1.00
23143;DHT22;11740;51.168;4.112;2022-10-30T04:25:22;14.50;99.90
23143;DHT22;11740;51.168;4.112;2022-10-30T04:27:49;14.50;99.90
23143;DHT22;11740;51.168;4.112;2022-10-30T04:30:18;14.40;1.00
23143;DHT22;11740;51.168;4.112;2022-10-30T04:32:47;14.40;99.90
23143;DHT22;11740;51.168;4.112;2022-10-30T04:35:15;14.40;99.90
23143;DHT22;11740;51.168;4.112;2022-10-30T04:37:42;14.40;99.90
23143;DHT22;11740;51.168;4.112;2022-10-30T04:40:09;14.30;99.90
23143;DHT22;11740;51.168;4.112;2022-10-30T04:42:36;14.30;99.90
23143;DHT22;11740;51.168;4.112;2022-10-30T04:45:03;14.30;99.90
23143;DHT22;11740;51.168;4.112;2022-10-30T04:47:30;14.30;1.00
23143;DHT22;11740;51.168;4.112;2022-10-30T04:49:58;14.30;99.90
23143;DHT22;11740;51.168;4.112;2022-10-30T04:52:25;14.20;1.00
23143;DHT22;11740;51.168;4.112;2022-10-30T04:54:51;14.20;99.90
23143;DHT22;11740;51.168;4.112;2022-10-30T04:57:18;14.20;1.00
23143;DHT22;11740;51.168;4.112;2022-10-30T04:59:45;14.10;1.00
23143;DHT22;11740;51.168;4.112;2022-10-30T05:02:11;14.10;1.00
23143;DHT22;11740;51.168;4.112;2022-10-30T05:04:39;14.10;1.00
23143;DHT22;11740;51.168;4.112;2022-10-30T05:07:05;14.10;1.00
23143;DHT22;11740;51.168;4.112;2022-10-30T05:09:32;14.00;1.00
23143;DHT22;11740;51.168;4.112;2022-10-30T05:12:00;14.10;1.00
23143;DHT22;11740;51.168;4.112;2022-10-30T05:14:27;14.10;1.00
23143;DHT22;11740;51.168;4.112;2022-10-30T05:16:58;14.00;1.00
23143;DHT22;11740;51.168;4.112;2022-10-30T05:19:25;14.00;1.00
23143;DHT22;11740;51.168;4.112;2022-10-30T05:21:52;14.00;1.00
23143;DHT22;11740;51.168;4.112;2022-10-30T05:24:18;14.00;1.00
23143;DHT22;11740;51.168;4.112;2022-10-30T05:26:45;13.90;1.00
23143;DHT22;11740;51.168;4.112;2022-10-30T05:29:12;13.90;1.00
23143;DHT22;11740;51.168;4.112;2022-10-30T05:31:39;13.90;1.00
23143;DHT22;11740;51.168;4.112;2022-10-30T05:34:06;13.90;1.00
23143;DHT22;11740;51.168;4.112;2022-10-30T05:36:33;13.90;1.00
23143;DHT22;11740;51.168;4.112;2022-10-30T05:38:59;13.80;99.90
23143;DHT22;11740;51.168;4.112;2022-10-30T05:41:28;13.80;99.90
23143;DHT22;11740;51.168;4.112;2022-10-30T05:43:55;13.80;1.00
23143;DHT22;11740;51.168;4.112;2022-10-30T05:46:22;13.80;99.90
23143;DHT22;11740;51.168;4.112;2022-10-30T05:48:49;13.80;99.90
23143;DHT22;11740;51.168;4.112;2022-10-30T05:51:15;13.80;1.00
23143;DHT22;11740;51.168;4.112;2022-10-30T05:53:42;13.80;1.00
23143;DHT22;11740;51.168;4.112;2022-10-30T05:56:09;13.70;5.80
23143;DHT22;11740;51.168;4.112;2022-10-30T05:58:35;13.70;99.90
23143;DHT22;11740;51.168;4.112;2022-10-30T06:01:06;13.70;1.00
23143;DHT22;11740;51.168;4.112;2022-10-30T06:03:33;13.70;1.00
23143;DHT22;11740;51.168;4.112;2022-10-30T06:06:00;13.60;1.00
23143;DHT22;11740;51.168;4.112;2022-10-30T06:08:27;13.60;1.00
23143;DHT22;11740;51.168;4.112;2022-10-30T06:10:53;13.60;1.00
23143;DHT22;11740;51.168;4.112;2022-10-30T06:13:21;13.60;1.00
23143;DHT22;11740;51.168;4.112;2022-10-30T06:15:48;13.60;1.00
23143;DHT22;11740;51.168;4.112;2022-10-30T06:18:14;13.60;1.00
23143;DHT22;11740;51.168;4.112;2022-10-30T06:20:41;13.50;1.00
23143;DHT22;11740;51.168;4.112;2022-10-30T06:23:08;13.50;1.00
23143;DHT22;11740;51.168;4.112;2022-10-30T06:25:35;13.50;1.00
23143;DHT22;11740;51.168;4.112;2022-10-30T06:28:08;13.50;99.90
23143;DHT22;11740;51.168;4.112;2022-10-30T06:30:36;13.50;62.40
23143;DHT22;11740;51.168;4.112;2022-10-30T06:33:03;13.50;84.30
23143;DHT22;11740;51.168;4.112;2022-10-30T06:35:30;13.50;1.00
23143;DHT22;11740;51.168;4.112;2022-10-30T06:37:57;13.40;99.90
23143;DHT22;11740;51.168;4.112;2022-10-30T06:40:27;13.40;9.70
23143;DHT22;11740;51.168;4.112;2022-10-30T06:42:55;13.40;54.20
23143;DHT22;11740;51.168;4.112;2022-10-30T06:45:23;13.40;1.00
23143;DHT22;11740;51.168;4.112;2022-10-30T06:47:50;13.40;99.90
23143;DHT22;11740;51.168;4.112;2022-10-30T06:50:18;13.40;59.70
23143;DHT22;11740;51.168;4.112;2022-10-30T06:52:49;13.40;99.90
23143;DHT22;11740;51.168;4.112;2022-10-30T06:55:16;13.40;99.90
23143;DHT22;11740;51.168;4.112;2022-10-30T06:57:44;13.40;99.90
23143;DHT22;11740;51.168;4.112;2022-10-30T07:00:11;13.40;99.90
23143;DHT22;11740;51.168;4.112;2022-10-30T07:02:38;13.40;99.90
23143;DHT22;11740;51.168;4.112;2022-10-30T07:05:05;13.30;99.90
23143;DHT22;11740;51.168;4.112;2022-10-30T07:07:32;13.40;48.70
23143;DHT22;11740;51.168;4.112;2022-10-30T07:09:59;13.40;99.90
23143;DHT22;11740;51.168;4.112;2022-10-30T07:12:26;13.30;99.90
23143;DHT22;11740;51.168;4.112;2022-10-30T07:14:52;13.40;99.90
23143;DHT22;11740;51.168;4.112;2022-10-30T07:17:19;13.40;99.90
23143;DHT22;11740;51.168;4.112;2022-10-30T07:19:46;13.40;1.00
23143;DHT22;11740;51.168;4.112;2022-10-30T07:22:13;13.40;1.00
23143;DHT22;11740;51.168;4.112;2022-10-30T07:24:39;13.40;1.00
23143;DHT22;11740;51.168;4.112;2022-10-30T07:27:06;13.40;99.90
23143;DHT22;11740;51.168;4.112;2022-10-30T07:29:33;13.50;99.90
23143;DHT22;11740;51.168;4.112;2022-10-30T07:32:00;13.50;1.00
23143;DHT22;11740;51.168;4.112;2022-10-30T07:34:29;13.50;1.00
23143;DHT22;11740;51.168;4.112;2022-10-30T07:36:56;13.50;99.90
23143;DHT22;11740;51.168;4.112;2022-10-30T07:39:23;13.50;99.90
23143;DHT22;11740;51.168;4.112;2022-10-30T07:41:49;13.60;1.00
23143;DHT22;11740;51.168;4.112;2022-10-30T07:44:16;13.60;99.90
23143;DHT22;11740;51.168;4.112;2022-10-30T07:46:43;13.60;99.90
23143;DHT22;11740;51.168;4.112;2022-10-30T07:49:10;13.70;1.00
23143;DHT22;11740;51.168;4.112;2022-10-30T07:51:37;13.70;99.90
23143;DHT22;11740;51.168;4.112;2022-10-30T07:54:03;13.80;1.00
23143;DHT22;11740;51.168;4.112;2022-10-30T07:56:30;13.80;1.00
23143;DHT22;11740;51.168;4.112;2022-10-30T07:58:57;13.90;1.00
23143;DHT22;11740;51.168;4.112;2022-10-30T08:01:24;13.90;99.90
23143;DHT22;11740;51.168;4.112;2022-10-30T08:03:51;13.90;99.90
23143;DHT22;11740;51.168;4.112;2022-10-30T08:06:18;14.00;99.90
23143;DHT22;11740;51.168;4.112;2022-10-30T08:08:51;14.10;1.00
23143;DHT22;11740;51.168;4.112;2022-10-30T08:11:18;14.10;5.40
23143;DHT22;11740;51.168;4.112;2022-10-30T08:13:45;14.10;1.00
23143;DHT22;11740;51.168;4.112;2022-10-30T08:16:11;14.20;1.00
23143;DHT22;11740;51.168;4.112;2022-10-30T08:18:38;14.20;1.00
23143;DHT22;11740;51.168;4.112;2022-10-30T08:21:08;14.20;1.00
23143;DHT22;11740;51.168;4.112;2022-10-30T08:23:35;14.30;1.00
23143;DHT22;11740;51.168;4.112;2022-10-30T08:26:02;14.30;14.40
23143;DHT22;11740;51.168;4.112;2022-10-30T08:28:29;14.40;99.90
23143;DHT22;11740;51.168;4.112;2022-10-30T08:30:59;14.30;1.00
23143;DHT22;11740;51.168;4.112;2022-10-30T08:33:26;14.40;99.90
23143;DHT22;11740;51.168;4.112;2022-10-30T08:35:53;14.40;59.50
23143;DHT22;11740;51.168;4.112;2022-10-30T08:38:22;14.50;99.90
23143;DHT22;11740;51.168;4.112;2022-10-30T08:40:49;14.60;99.90
23143;DHT22;11740;51.168;4.112;2022-10-30T08:43:16;14.60;1.00
23143;DHT22;11740;51.168;4.112;2022-10-30T08:45:43;14.70;1.00
23143;DHT22;11740;51.168;4.112;2022-10-30T08:48:11;14.70;1.00
23143;DHT22;11740;51.168;4.112;2022-10-30T08:50:38;14.70;1.00
23143;DHT22;11740;51.168;4.112;2022-10-30T08:53:06;14.80;1.00
23143;DHT22;11740;51.168;4.112;2022-10-30T08:55:34;14.90;1.00
23143;DHT22;11740;51.168;4.112;2022-10-30T08:58:01;14.90;1.00
23143;DHT22;11740;51.168;4.112;2022-10-30T09:00:28;15.00;1.00
23143;DHT22;11740;51.168;4.112;2022-10-30T09:02:55;15.00;99.90
23143;DHT22;11740;51.168;4.112;2022-10-30T09:05:23;15.00;99.90
23143;DHT22;11740;51.168;4.112;2022-10-30T09:07:54;15.10;99.90
23143;DHT22;11740;51.168;4.112;2022-10-30T09:10:22;15.10;63.50
23143;DHT22;11740;51.168;4.112;2022-10-30T09:12:52;15.20;99.90
23143;DHT22;11740;51.168;4.112;2022-10-30T09:15:21;15.20;99.90
23143;DHT22;11740;51.168;4.112;2022-10-30T09:17:53;15.20;1.00
23143;DHT22;11740;51.168;4.112;2022-10-30T09:20:21;15.40;99.90
23143;DHT22;11740;51.168;4.112;2022-10-30T09:22:48;15.50;99.90
23143;DHT22;11740;51.168;4.112;2022-10-30T09:25:15;15.50;1.00
23143;DHT22;11740;51.168;4.112;2022-10-30T09:27:41;15.50;99.90
23143;DHT22;11740;51.168;4.112;2022-10-30T09:30:08;15.60;5.90
23143;DHT22;11740;51.168;4.112;2022-10-30T09:32:36;15.70;99.90
23143;DHT22;11740;51.168;4.112;2022-10-30T09:35:02;15.80;99.90
23143;DHT22;11740;51.168;4.112;2022-10-30T09:37:32;15.70;44.40
23143;DHT22;11740;51.168;4.112;2022-10-30T09:40:00;15.80;99.90
23143;DHT22;11740;51.168;4.112;2022-10-30T09:50:55;16.30;1.00
23143;DHT22;11740;51.168;4.112;2022-10-30T09:53:31;16.40;1.00
23143;DHT22;11740;51.168;4.112;2022-10-30T09:56:08;16.40;1.00
23143;DHT22;11740;51.168;4.112;2022-10-30T10:04:29;16.50;1.00
23143;DHT22;11740;51.168;4.112;2022-10-30T10:07:06;16.50;99.90
23143;DHT22;11740;51.168;4.112;2022-10-30T10:09:46;16.60;1.00
23143;DHT22;11740;51.168;4.112;2022-10-30T10:12:36;16.50;1.00
23143;DHT22;11740;51.168;4.112;2022-10-30T10:15:03;16.70;1.00
23143;DHT22;11740;51.168;4.112;2022-10-30T10:17:36;16.70;99.90
23143;DHT22;11740;51.168;4.112;2022-10-30T10:20:05;16.80;99.90
23143;DHT22;11740;51.168;4.112;2022-10-30T10:22:47;16.80;99.90
23143;DHT22;11740;51.168;4.112;2022-10-30T10:25:16;16.90;99.90
23143;DHT22;11740;51.168;4.112;2022-10-30T10:30:15;17.00;99.90
23143;DHT22;11740;51.168;4.112;2022-10-30T10:41:04;17.20;99.90
23143;DHT22;11740;51.168;4.112;2022-10-30T10:49:34;17.40;15.80
23143;DHT22;11740;51.168;4.112;2022-10-30T10:55:08;17.60;1.00
23143;DHT22;11740;51.168;4.112;2022-10-30T10:57:40;17.60;1.00
23143;DHT22;11740;51.168;4.112;2022-10-30T11:00:29;17.60;1.00
23143;DHT22;11740;51.168;4.112;2022-10-30T11:03:00;17.70;1.00
23143;DHT22;11740;51.168;4.112;2022-10-30T11:05:47;17.80;1.00
23143;DHT22;11740;51.168;4.112;2022-10-30T11:08:28;17.80;1.00
23143;DHT22;11740;51.168;4.112;2022-10-30T11:11:03;17.80;1.00
23143;DHT22;11740;51.168;4.112;2022-10-30T11:13:35;17.90;1.00
23143;DHT22;11740;51.168;4.112;2022-10-30T11:16:15;17.90;1.00
23143;DHT22;11740;51.168;4.112;2022-10-30T11:18:46;17.90;1.00
23143;DHT22;11740;51.168;4.112;2022-10-30T11:21:18;18.00;1.00
23143;DHT22;11740;51.168;4.112;2022-10-30T11:23:48;18.00;93.90
23143;DHT22;11740;51.168;4.112;2022-10-30T11:28:52;18.10;1.00
23143;DHT22;11740;51.168;4.112;2022-10-30T11:34:12;18.20;1.00
23143;DHT22;11740;51.168;4.112;2022-10-30T11:36:40;18.20;1.00
23143;DHT22;11740;51.168;4.112;2022-10-30T11:39:13;18.20;1.00
23143;DHT22;11740;51.168;4.112;2022-10-30T11:42:26;18.30;1.00
23143;DHT22;11740;51.168;4.112;2022-10-30T11:44:40;18.30;1.00
23143;DHT22;11740;51.168;4.112;2022-10-30T11:47:09;18.30;1.00
23143;DHT22;11740;51.168;4.112;2022-10-30T11:52:20;18.40;1.00
23143;DHT22;11740;51.168;4.112;2022-10-30T11:54:52;18.50;1.00
23143;DHT22;11740;51.168;4.112;2022-10-30T11:57:22;18.50;1.00
23143;DHT22;11740;51.168;4.112;2022-10-30T11:59:55;18.50;99.90
23143;DHT22;11740;51.168;4.112;2022-10-30T12:02:29;18.50;99.90
23143;DHT22;11740;51.168;4.112;2022-10-30T12:08:18;18.60;99.90
23143;DHT22;11740;51.168;4.112;2022-10-30T12:10:53;18.60;99.90
23143;DHT22;11740;51.168;4.112;2022-10-30T12:13:22;18.70;99.90
23143;DHT22;11740;51.168;4.112;2022-10-30T12:15:50;18.70;99.90
23143;DHT22;11740;51.168;4.112;2022-10-30T12:18:32;18.80;99.90
23143;DHT22;11740;51.168;4.112;2022-10-30T12:20:59;18.80;99.90
23143;DHT22;11740;51.168;4.112;2022-10-30T12:23:26;18.90;99.90
23143;DHT22;11740;51.168;4.112;2022-10-30T12:26:15;18.90;99.90
23143;DHT22;11740;51.168;4.112;2022-10-30T12:28:41;18.90;99.90
23143;DHT22;11740;51.168;4.112;2022-10-30T12:31:18;19.00;92.20
23143;DHT22;11740;51.168;4.112;2022-10-30T12:36:19;19.00;99.90
23143;DHT22;11740;51.168;4.112;2022-10-30T12:38:54;19.10;99.90
23143;DHT22;11740;51.168;4.112;2022-10-30T12:41:25;19.20;1.00
23143;DHT22;11740;51.168;4.112;2022-10-30T12:49:38;19.40;1.00
23143;DHT22;11740;51.168;4.112;2022-10-30T12:57:48;19.60;1.00
23143;DHT22;11740;51.168;4.112;2022-10-30T13:00:20;19.70;1.00
23143;DHT22;11740;51.168;4.112;2022-10-30T13:05:50;19.90;1.00
23143;DHT22;11740;51.168;4.112;2022-10-30T13:08:22;20.00;1.00
23143;DHT22;11740;51.168;4.112;2022-10-30T13:10:55;20.10;1.00
23143;DHT22;11740;51.168;4.112;2022-10-30T13:14:12;20.20;99.90
23143;DHT22;11740;51.168;4.112;2022-10-30T13:16:26;20.20;1.00
23143;DHT22;11740;51.168;4.112;2022-10-30T13:19:00;20.30;19.40
23143;DHT22;11740;51.168;4.112;2022-10-30T13:24:11;20.30;1.00
23143;DHT22;11740;51.168;4.112;2022-10-30T13:26:45;20.30;1.00
23143;DHT22;11740;51.168;4.112;2022-10-30T13:29:31;20.30;1.00
23143;DHT22;11740;51.168;4.112;2022-10-30T13:40:15;20.50;1.00
23143;DHT22;11740;51.168;4.112;2022-10-30T13:53:33;20.70;99.90
23143;DHT22;11740;51.168;4.112;2022-10-30T13:56:03;20.80;99.90
23143;DHT22;11740;51.168;4.112;2022-10-30T14:01:16;20.70;1.00
23143;DHT22;11740;51.168;4.112;2022-10-30T14:04:08;20.80;1.00
23143;DHT22;11740;51.168;4.112;2022-10-30T14:06:41;21.00;99.90
23143;DHT22;11740;51.168;4.112;2022-10-30T14:09:14;21.00;99.90
23143;DHT22;11740;51.168;4.112;2022-10-30T14:11:45;20.90;1.00
23143;DHT22;11740;51.168;4.112;2022-10-30T14:16:45;20.80;1.00
23143;DHT22;11740;51.168;4.112;2022-10-30T14:19:13;20.80;1.00
23143;DHT22;11740;51.168;4.112;2022-10-30T14:26:52;20.80;1.00
23143;DHT22;11740;51.168;4.112;2022-10-30T14:31:57;20.80;1.00
23143;DHT22;11740;51.168;4.112;2022-10-30T14:37:11;20.70;1.00
23143;DHT22;11740;51.168;4.112;2022-10-30T14:39:41;20.70;1.00
23143;DHT22;11740;51.168;4.112;2022-10-30T14:42:27;20.70;1.00
23143;DHT22;11740;51.168;4.112;2022-10-30T14:45:16;20.70;99.90
23143;DHT22;11740;51.168;4.112;2022-10-30T14:51:04;20.40;99.90
23143;DHT22;11740;51.168;4.112;2022-10-30T14:56:19;20.30;41.00
23143;DHT22;11740;51.168;4.112;2022-10-30T15:10:32;20.40;1.00
23143;DHT22;11740;51.168;4.112;2022-10-30T15:15:29;20.20;99.90
23143;DHT22;11740;51.168;4.112;2022-10-30T15:17:57;20.00;99.90
23143;DHT22;11740;51.168;4.112;2022-10-30T15:20:26;20.10;1.00
23143;DHT22;11740;51.168;4.112;2022-10-30T15:22:56;20.10;1.00
23143;DHT22;11740;51.168;4.112;2022-10-30T15:25:34;20.10;99.90
23143;DHT22;11740;51.168;4.112;2022-10-30T15:28:03;20.10;1.00
23143;DHT22;11740;51.168;4.112;2022-10-30T15:30:30;20.10;1.00
23143;DHT22;11740;51.168;4.112;2022-10-30T15:32:57;20.10;1.00
23143;DHT22;11740;51.168;4.112;2022-10-30T15:35:25;20.20;1.00
23143;DHT22;11740;51.168;4.112;2022-10-30T15:38:04;20.10;1.00
23143;DHT22;11740;51.168;4.112;2022-10-30T15:40:35;20.10;99.90
23143;DHT22;11740;51.168;4.112;2022-10-30T15:43:04;20.10;99.90
23143;DHT22;11740;51.168;4.112;2022-10-30T15:50:51;20.00;99.90
23143;DHT22;11740;51.168;4.112;2022-10-30T15:53:20;19.90;1.00
23143;DHT22;11740;51.168;4.112;2022-10-30T15:55:50;19.90;1.00
23143;DHT22;11740;51.168;4.112;2022-10-30T15:58:19;19.80;1.00
23143;DHT22;11740;51.168;4.112;2022-10-30T16:00:57;19.90;1.00
23143;DHT22;11740;51.168;4.112;2022-10-30T16:03:26;19.90;1.00
23143;DHT22;11740;51.168;4.112;2022-10-30T16:06:13;19.90;1.00
23143;DHT22;11740;51.168;4.112;2022-10-30T16:08:42;19.80;99.90
23143;DHT22;11740;51.168;4.112;2022-10-30T16:11:11;19.60;99.90
23143;DHT22;11740;51.168;4.112;2022-10-30T16:13:38;19.50;1.00
23143;DHT22;11740;51.168;4.112;2022-10-30T16:16:06;19.60;1.00
23143;DHT22;11740;51.168;4.112;2022-10-30T16:18:37;19.70;1.00
23143;DHT22;11740;51.168;4.112;2022-10-30T16:21:05;19.70;1.00
23143;DHT22;11740;51.168;4.112;2022-10-30T16:23:40;19.50;1.00
23143;DHT22;11740;51.168;4.112;2022-10-30T16:26:29;19.60;1.00
23143;DHT22;11740;51.168;4.112;2022-10-30T16:29:00;19.40;1.00
23143;DHT22;11740;51.168;4.112;2022-10-30T16:31:33;19.30;1.00
23143;DHT22;11740;51.168;4.112;2022-10-30T16:34:02;19.40;1.00
23143;DHT22;11740;51.168;4.112;2022-10-30T16:36:29;19.30;1.00
23143;DHT22;11740;51.168;4.112;2022-10-30T16:38:56;19.10;1.00
23143;DHT22;11740;51.168;4.112;2022-10-30T16:41:24;19.10;1.00
23143;DHT22;11740;51.168;4.112;2022-10-30T16:46:38;19.10;1.00
23143;DHT22;11740;51.168;4.112;2022-10-30T16:49:14;19.10;1.00
23143;DHT22;11740;51.168;4.112;2022-10-30T16:51:43;19.00;1.00
23143;DHT22;11740;51.168;4.112;2022-10-30T16:54:17;18.80;1.00
23143;DHT22;11740;51.168;4.112;2022-10-30T16:56:46;18.80;1.00
23143;DHT22;11740;51.168;4.112;2022-10-30T16:59:15;18.80;1.00
23143;DHT22;11740;51.168;4.112;2022-10-30T17:01:52;18.70;1.00
23143;DHT22;11740;51.168;4.112;2022-10-30T17:04:21;18.70;1.00
23143;DHT22;11740;51.168;4.112;2022-10-30T17:06:48;18.60;1.00
23143;DHT22;11740;51.168;4.112;2022-10-30T17:12:00;18.50;18.60
23143;DHT22;11740;51.168;4.112;2022-10-30T17:14:54;18.50;12.40
23143;DHT22;11740;51.168;4.112;2022-10-30T17:22:32;18.50;9.30
23143;DHT22;11740;51.168;4.112;2022-10-30T17:24:59;18.40;1.00
23143;DHT22;11740;51.168;4.112;2022-10-30T17:29:57;18.10;66.60
23143;DHT22;11740;51.168;4.112;2022-10-30T17:34:56;18.00;1.00
23143;DHT22;11740;51.168;4.112;2022-10-30T17:37:26;17.80;99.90
23143;DHT22;11740;51.168;4.112;2022-10-30T17:39:53;17.80;99.90
23143;DHT22;11740;51.168;4.112;2022-10-30T17:42:20;17.80;99.90
23143;DHT22;11740;51.168;4.112;2022-10-30T17:44:47;17.80;99.90
23143;DHT22;11740;51.168;4.112;2022-10-30T17:47:15;17.70;99.90
23143;DHT22;11740;51.168;4.112;2022-10-30T17:49:43;17.60;99.90
23143;DHT22;11740;51.168;4.112;2022-10-30T17:52:11;17.70;99.90
23143;DHT22;11740;51.168;4.112;2022-10-30T17:54:40;17.70;99.90
23143;DHT22;11740;51.168;4.112;2022-10-30T17:57:10;17.70;99.90
23143;DHT22;11740;51.168;4.112;2022-10-30T17:59:38;17.70;99.90
23143;DHT22;11740;51.168;4.112;2022-10-30T18:02:11;17.70;99.90
23143;DHT22;11740;51.168;4.112;2022-10-30T18:04:40;17.50;1.00
23143;DHT22;11740;51.168;4.112;2022-10-30T18:07:10;17.50;1.00
23143;DHT22;11740;51.168;4.112;2022-10-30T18:09:38;17.50;1.00
23143;DHT22;11740;51.168;4.112;2022-10-30T18:12:06;17.30;1.00
23143;DHT22;11740;51.168;4.112;2022-10-30T18:14:35;17.20;1.00
23143;DHT22;11740;51.168;4.112;2022-10-30T18:17:02;17.20;1.00
23143;DHT22;11740;51.168;4.112;2022-10-30T18:19:29;17.30;1.00
23143;DHT22;11740;51.168;4.112;2022-10-30T18:21:56;17.20;1.00
23143;DHT22;11740;51.168;4.112;2022-10-30T18:24:22;17.10;1.00
23143;DHT22;11740;51.168;4.112;2022-10-30T18:26:49;17.00;1.00
23143;DHT22;11740;51.168;4.112;2022-10-30T18:29:16;17.00;1.00
23143;DHT22;11740;51.168;4.112;2022-10-30T18:31:43;16.90;1.00
23143;DHT22;11740;51.168;4.112;2022-10-30T18:34:15;16.80;1.00
23143;DHT22;11740;51.168;4.112;2022-10-30T18:36:43;16.80;1.00
23143;DHT22;11740;51.168;4.112;2022-10-30T18:39:10;16.70;16.70
23143;DHT22;11740;51.168;4.112;2022-10-30T18:41:39;16.70;1.00
23143;DHT22;11740;51.168;4.112;2022-10-30T18:44:09;16.80;1.00
23143;DHT22;11740;51.168;4.112;2022-10-30T18:46:39;16.80;1.00
23143;DHT22;11740;51.168;4.112;2022-10-30T18:49:05;16.70;1.00